WMC Airport (Winnemucca Muni) Information

FAA: WMC - ICAO: KWMC

WMC Airport Location

State Nevada
County Humboldt
City Winnemucca
WMC Airport is 5 miles southwest of Winnemucca, NV.
Latitude 40-53-47.8000N
Longitude 117-48-21.2000W
Elevation 4,307ft

KWMC Airport METARs

METAR KWMC 060856Z AUTO 00000KT 10SM CLR M06/M09 A3028 RMK AO2 SLP255 T10561089 58004
Altimeter 30.28"
Temperature -5.6°C (21.9°F)
Wind 0° at 0KT
Clouds Skies are clear.
Visibility 10.0mi
Time observed: 2021-12-06T08:56:00Z

WMC Airport Details

Status Operational
Activation October 1943
Ownership Public
Usage Public
Chart KLAMATH FALLS
ATC on-site No
Beacon schedule sunset-sunrise
Beacon color clear green

WMC Airport Contacts

Owner CITY/COUNTY OF WINNEMUCCA
Owner address 90 WEST 4TH STREET, WINNEMUCCA, NV 89445
Owner phone 775-623-6333
Manager ALBERT G. MARQUIS
Manager address 10001 PARK RUN DR., LAS VEGAS, NV 89145
Manager phone 702-942-2127

WMC Airport (Winnemucca Muni) Radio Frequencies

WMC (Airport) Radio Frequencies

UNICOM 122.8
Common traffic advisory frequency (CTAF) 122.8